createdAt,value
2023-10-29T00:00:11.876Z,8.00
2023-10-29T00:02:40.038Z,6.18
2023-10-29T00:05:07.529Z,5.68
2023-10-29T00:07:35.167Z,7.25
2023-10-29T00:10:02.538Z,7.00
2023-10-29T00:12:31.651Z,8.45
2023-10-29T00:14:59.312Z,9.52
2023-10-29T00:17:26.829Z,6.65
2023-10-29T00:19:56.486Z,6.07
2023-10-29T00:22:24.053Z,6.63
2023-10-29T00:24:51.405Z,6.45
2023-10-29T00:27:18.853Z,5.85
2023-10-29T00:29:48.222Z,6.88
2023-10-29T00:32:17.123Z,4.07
2023-10-29T00:34:44.796Z,4.93
2023-10-29T00:37:12.094Z,5.10
2023-10-29T00:39:39.915Z,5.25
2023-10-29T00:42:07.676Z,4.78
2023-10-29T00:44:35.330Z,6.47
2023-10-29T00:47:02.869Z,5.57
2023-10-29T00:49:30.264Z,5.57
2023-10-29T00:51:57.791Z,4.80
2023-10-29T00:54:25.540Z,5.18
2023-10-29T00:56:55.279Z,4.30
2023-10-29T00:59:23.371Z,5.97
2023-10-29T01:01:51.033Z,6.00
2023-10-29T01:04:18.412Z,3.72
2023-10-29T01:06:47.948Z,3.20
2023-10-29T01:09:16.492Z,5.03
2023-10-29T01:11:43.833Z,4.15
2023-10-29T01:14:11.270Z,4.38
2023-10-29T01:16:39.917Z,4.28
2023-10-29T01:19:07.491Z,5.03
2023-10-29T01:21:35.219Z,2.85
2023-10-29T01:24:03.644Z,4.20
2023-10-29T01:26:30.857Z,2.63
2023-10-29T01:28:58.085Z,3.97
2023-10-29T01:31:25.489Z,2.25
2023-10-29T01:33:53.918Z,6.80
2023-10-29T01:36:21.114Z,3.17
2023-10-29T01:38:48.510Z,2.58
2023-10-29T01:41:17.211Z,2.22
2023-10-29T01:43:44.747Z,2.30
2023-10-29T01:46:11.991Z,2.00
2023-10-29T01:48:39.237Z,2.17
2023-10-29T01:51:07.638Z,1.83
2023-10-29T01:53:34.883Z,2.10
2023-10-29T01:56:07.431Z,2.38
2023-10-29T01:58:35.444Z,2.65
2023-10-29T02:01:02.964Z,2.78
2023-10-29T02:03:30.470Z,3.20
2023-10-29T02:05:57.875Z,2.33
2023-10-29T02:08:25.171Z,1.92
2023-10-29T02:10:52.437Z,2.13
2023-10-29T02:13:20.015Z,2.10
2023-10-29T02:15:47.573Z,2.22
2023-10-29T02:18:15.508Z,2.08
2023-10-29T02:21:02.997Z,1.30
2023-10-29T02:23:30.086Z,1.48
2023-10-29T02:25:57.410Z,1.85
2023-10-29T02:28:24.847Z,2.78
2023-10-29T02:30:52.288Z,2.20
2023-10-29T02:33:19.680Z,2.13
2023-10-29T02:35:47.672Z,2.78
2023-10-29T02:38:16.086Z,2.20
2023-10-29T02:40:44.311Z,2.92
2023-10-29T02:43:12.104Z,2.08
2023-10-29T02:45:41.085Z,2.78
2023-10-29T02:48:08.394Z,2.58
2023-10-29T02:50:39.527Z,2.10
2023-10-29T02:53:06.967Z,2.25
2023-10-29T02:55:34.400Z,2.08
2023-10-29T02:58:03.088Z,1.63
2023-10-29T03:00:30.422Z,2.45
2023-10-29T03:02:57.910Z,2.05
2023-10-29T03:05:25.188Z,2.50
2023-10-29T03:07:52.748Z,1.67
2023-10-29T03:10:20.406Z,1.67
2023-10-29T03:12:47.606Z,2.20
2023-10-29T03:15:15.311Z,1.60
2023-10-29T03:17:42.761Z,2.88
2023-10-29T03:20:11.119Z,2.00
2023-10-29T03:22:38.936Z,1.70
2023-10-29T03:25:06.445Z,1.75
2023-10-29T03:27:34.260Z,1.95
2023-10-29T03:30:02.525Z,1.80
2023-10-29T03:32:32.344Z,3.15
2023-10-29T03:35:00.900Z,2.15
2023-10-29T03:37:28.274Z,1.75
2023-10-29T03:39:55.620Z,2.60
2023-10-29T03:42:23.028Z,3.35
2023-10-29T03:44:50.548Z,2.38
2023-10-29T03:47:18.067Z,2.95
2023-10-29T03:49:45.504Z,2.30
2023-10-29T03:52:13.059Z,2.80
2023-10-29T03:54:40.467Z,3.40
2023-10-29T03:57:08.821Z,2.60
2023-10-29T03:59:36.326Z,3.72
2023-10-29T04:02:05.469Z,3.72
2023-10-29T04:04:36.951Z,3.63
2023-10-29T04:07:04.169Z,4.05
2023-10-29T04:09:32.118Z,4.28
2023-10-29T04:12:00.588Z,4.75
2023-10-29T04:14:28.088Z,3.92
2023-10-29T04:16:55.282Z,4.18
2023-10-29T04:19:22.764Z,4.82
2023-10-29T04:21:50.039Z,4.93
2023-10-29T04:24:17.537Z,3.30
2023-10-29T04:26:44.816Z,4.70
2023-10-29T04:29:12.093Z,5.55
2023-10-29T04:31:39.441Z,4.40
2023-10-29T04:34:06.818Z,6.90
2023-10-29T04:36:34.162Z,3.83
2023-10-29T04:39:01.724Z,3.85
2023-10-29T04:41:29.360Z,5.25
2023-10-29T04:43:56.628Z,4.10
2023-10-29T04:46:24.192Z,7.03
2023-10-29T04:48:51.502Z,5.63
2023-10-29T04:51:18.773Z,5.00
2023-10-29T04:53:46.072Z,5.95
2023-10-29T04:56:13.415Z,4.72
2023-10-29T04:58:40.805Z,6.53
2023-10-29T05:01:08.950Z,4.82
2023-10-29T05:03:36.617Z,4.15
2023-10-29T05:06:05.186Z,4.85
2023-10-29T05:08:32.764Z,5.55
2023-10-29T05:11:00.005Z,5.28
2023-10-29T05:13:27.273Z,4.53
2023-10-29T05:15:54.721Z,3.72
2023-10-29T05:18:22.424Z,4.40
2023-10-29T05:20:49.735Z,4.75
2023-10-29T05:23:17.265Z,5.90
2023-10-29T05:25:45.654Z,6.70
2023-10-29T05:28:12.906Z,5.82
2023-10-29T05:30:40.487Z,6.38
2023-10-29T05:33:07.958Z,6.15
2023-10-29T05:35:35.570Z,5.00
2023-10-29T05:38:02.776Z,6.35
2023-10-29T05:40:30.385Z,7.45
2023-10-29T05:42:59.281Z,4.75
2023-10-29T05:45:28.208Z,6.95
2023-10-29T05:47:58.163Z,7.45
2023-10-29T05:50:25.940Z,6.13
2023-10-29T05:52:53.401Z,5.90
2023-10-29T05:55:23.622Z,6.75
2023-10-29T05:57:50.995Z,6.43
2023-10-29T06:00:18.826Z,6.30
2023-10-29T06:02:46.334Z,7.15
2023-10-29T06:05:14.077Z,6.20
2023-10-29T06:07:45.394Z,8.27
2023-10-29T06:10:14.953Z,5.07
2023-10-29T06:12:43.899Z,7.47
2023-10-29T06:15:12.600Z,6.80
2023-10-29T06:17:40.536Z,6.55
2023-10-29T06:20:10.494Z,7.82
2023-10-29T06:22:37.920Z,6.10
2023-10-29T06:25:05.694Z,6.68
2023-10-29T06:27:33.064Z,7.10
2023-10-29T06:30:01.252Z,8.00
2023-10-29T06:32:34.682Z,6.78
2023-10-29T06:35:02.185Z,6.18
2023-10-29T06:37:31.516Z,5.35
2023-10-29T06:39:58.871Z,6.30
2023-10-29T06:42:26.226Z,7.72
2023-10-29T06:44:53.573Z,7.25
2023-10-29T06:47:21.272Z,8.30
2023-10-29T06:49:48.682Z,6.88
2023-10-29T06:52:16.125Z,7.40
2023-10-29T06:54:43.350Z,7.40
2023-10-29T06:57:10.891Z,5.68
2023-10-29T06:59:38.321Z,7.00
2023-10-29T07:02:06.066Z,7.97
2023-10-29T07:04:33.743Z,6.53
2023-10-29T07:07:01.313Z,6.78
2023-10-29T07:09:29.026Z,7.32
2023-10-29T07:11:57.108Z,6.68
2023-10-29T07:14:24.608Z,6.05
2023-10-29T07:16:51.995Z,7.97
2023-10-29T07:19:19.491Z,8.90
2023-10-29T07:21:47.160Z,8.02
2023-10-29T07:24:14.506Z,10.75
2023-10-29T07:26:42.437Z,8.65
2023-10-29T07:29:09.893Z,6.47
2023-10-29T07:31:37.311Z,9.00
2023-10-29T07:34:04.843Z,10.40
2023-10-29T07:36:32.304Z,9.25
2023-10-29T07:38:59.890Z,11.48
2023-10-29T07:41:27.490Z,10.98
2023-10-29T07:43:54.750Z,11.10
2023-10-29T07:46:22.075Z,9.20
2023-10-29T07:48:49.297Z,10.32
2023-10-29T07:51:16.859Z,8.95
2023-10-29T07:53:44.388Z,8.82
2023-10-29T07:56:14.486Z,10.75
2023-10-29T07:58:41.909Z,11.05
2023-10-29T08:01:16.398Z,9.70
2023-10-29T08:03:45.382Z,10.15
2023-10-29T08:06:14.340Z,9.57
2023-10-29T08:08:42.034Z,9.40
2023-10-29T08:11:19.181Z,11.82
2023-10-29T08:13:47.307Z,9.23
2023-10-29T08:16:15.054Z,7.78
2023-10-29T08:18:42.899Z,8.70
2023-10-29T08:21:10.340Z,9.30
2023-10-29T08:23:37.952Z,8.98
2023-10-29T08:26:05.294Z,9.27
2023-10-29T08:28:32.872Z,14.35
2023-10-29T08:31:00.121Z,12.60
2023-10-29T08:33:28.035Z,10.55
2023-10-29T08:35:55.534Z,11.27
2023-10-29T08:38:23.051Z,12.13
2023-10-29T08:40:50.363Z,12.07
2023-10-29T08:43:18.580Z,11.88
2023-10-29T08:45:46.028Z,11.82
2023-10-29T08:48:15.151Z,12.75
2023-10-29T08:50:42.704Z,8.80
2023-10-29T08:53:12.312Z,11.18
2023-10-29T08:55:39.973Z,9.52
2023-10-29T08:58:10.904Z,11.15
2023-10-29T09:00:46.534Z,11.75
2023-10-29T09:03:17.118Z,11.00
2023-10-29T09:05:45.054Z,9.27
2023-10-29T09:08:12.969Z,7.95
2023-10-29T09:10:44.089Z,13.00
2023-10-29T09:13:11.797Z,15.32
2023-10-29T09:15:42.381Z,10.52
2023-10-29T09:18:12.413Z,10.18
2023-10-29T09:20:40.248Z,7.68
2023-10-29T09:23:07.718Z,10.25
2023-10-29T09:25:35.412Z,9.80
2023-10-29T09:28:06.389Z,11.50
2023-10-29T09:30:40.222Z,9.18
2023-10-29T09:33:09.453Z,9.40
2023-10-29T09:35:37.224Z,14.25
2023-10-29T09:38:07.420Z,10.15
2023-10-29T09:40:35.263Z,13.50
2023-10-29T09:43:09.826Z,11.15
2023-10-29T09:45:49.069Z,12.02
2023-10-29T09:48:17.515Z,11.38
2023-10-29T09:50:49.742Z,10.82
2023-10-29T09:53:17.397Z,12.60
2023-10-29T09:55:44.869Z,12.43
2023-10-29T09:58:12.170Z,11.43
2023-10-29T10:00:42.818Z,11.65
2023-10-29T10:03:10.279Z,9.98
2023-10-29T10:05:40.076Z,12.05
2023-10-29T10:08:07.455Z,11.63
2023-10-29T10:10:39.984Z,13.77
2023-10-29T10:13:08.028Z,10.98
2023-10-29T10:15:36.365Z,11.43
2023-10-29T10:18:08.653Z,8.23
2023-10-29T10:20:36.914Z,8.32
2023-10-29T10:23:21.085Z,8.50
2023-10-29T10:25:48.729Z,10.65
2023-10-29T10:28:18.011Z,13.20
2023-10-29T10:30:45.271Z,10.15
2023-10-29T10:33:14.963Z,10.45
2023-10-29T10:35:48.230Z,8.95
2023-10-29T10:38:16.671Z,8.70
2023-10-29T10:40:45.788Z,9.73
2023-10-29T10:43:19.653Z,10.55
2023-10-29T10:45:51.786Z,9.23
2023-10-29T10:48:19.835Z,10.68
2023-10-29T10:50:48.416Z,8.30
2023-10-29T10:53:18.983Z,11.80
2023-10-29T10:56:02.526Z,8.98
2023-10-29T10:58:32.614Z,9.82
2023-10-29T11:01:00.669Z,9.93
2023-10-29T11:06:22.915Z,6.63
2023-10-29T11:08:51.036Z,10.57
2023-10-29T11:11:19.639Z,11.35
2023-10-29T11:13:47.409Z,7.97
2023-10-29T11:16:26.489Z,8.20
2023-10-29T11:18:55.892Z,9.70
2023-10-29T11:21:35.491Z,7.20
2023-10-29T11:24:20.258Z,8.80
2023-10-29T11:26:48.642Z,8.27
2023-10-29T11:29:42.415Z,10.98
2023-10-29T11:32:26.681Z,8.90
2023-10-29T11:35:15.997Z,8.77
2023-10-29T11:37:44.696Z,9.98
2023-10-29T11:40:27.168Z,7.95
2023-10-29T11:42:55.778Z,7.70
2023-10-29T11:45:29.473Z,7.90
2023-10-29T11:48:11.081Z,9.13
2023-10-29T11:50:46.238Z,9.95
2023-10-29T11:53:26.225Z,8.23
2023-10-29T11:55:53.891Z,8.40
2023-10-29T11:58:23.439Z,8.07
2023-10-29T12:00:53.005Z,6.25
2023-10-29T12:03:22.073Z,8.05
2023-10-29T12:05:59.224Z,7.03
2023-10-29T12:08:27.498Z,7.55
2023-10-29T12:10:56.848Z,8.10
2023-10-29T12:13:24.745Z,8.52
2023-10-29T12:15:58.335Z,11.57
2023-10-29T12:18:26.884Z,8.02
2023-10-29T12:21:09.138Z,7.45
2023-10-29T12:23:38.064Z,7.78
2023-10-29T12:26:08.149Z,8.15
2023-10-29T12:28:37.717Z,6.25
2023-10-29T12:31:07.998Z,6.60
2023-10-29T12:33:37.807Z,11.75
2023-10-29T12:36:15.035Z,6.00
2023-10-29T12:38:42.928Z,6.28
2023-10-29T12:41:15.324Z,7.72
2023-10-29T12:43:44.565Z,8.30
2023-10-29T12:46:21.316Z,7.50
2023-10-29T12:49:05.974Z,5.78
2023-10-29T12:51:44.579Z,7.07
2023-10-29T12:54:26.912Z,6.50
2023-10-29T12:57:03.046Z,8.90
2023-10-29T12:59:33.546Z,8.98
2023-10-29T13:02:07.361Z,6.40
2023-10-29T13:04:36.675Z,9.05
2023-10-29T13:07:13.015Z,7.65
2023-10-29T13:09:42.675Z,7.95
2023-10-29T13:12:12.019Z,7.10
2023-10-29T13:14:40.761Z,7.20
2023-10-29T13:17:09.011Z,6.22
2023-10-29T13:19:36.961Z,8.50
2023-10-29T13:22:04.329Z,7.47
2023-10-29T13:24:31.642Z,7.28
2023-10-29T13:26:59.138Z,8.13
2023-10-29T13:29:26.820Z,9.43
2023-10-29T13:31:54.354Z,7.38
2023-10-29T13:34:22.248Z,7.05
2023-10-29T13:36:49.602Z,6.20
2023-10-29T13:39:19.539Z,9.88
2023-10-29T13:41:49.664Z,7.70
2023-10-29T13:44:18.632Z,9.02
2023-10-29T13:46:46.379Z,6.90
2023-10-29T13:49:13.788Z,6.45
2023-10-29T13:51:43.122Z,7.88
2023-10-29T13:54:10.743Z,7.55
2023-10-29T13:56:38.098Z,5.03
2023-10-29T13:59:05.912Z,6.25
2023-10-29T14:01:33.713Z,7.32
2023-10-29T14:04:02.017Z,6.53
2023-10-29T14:06:31.329Z,6.68
2023-10-29T14:08:58.951Z,5.93
2023-10-29T14:11:26.584Z,6.55
2023-10-29T14:13:59.416Z,6.10
2023-10-29T14:16:41.377Z,6.63
2023-10-29T14:19:10.201Z,6.85
2023-10-29T14:21:38.105Z,6.22
2023-10-29T14:24:08.838Z,8.45
2023-10-29T14:26:36.821Z,5.97
2023-10-29T14:29:04.326Z,8.75
2023-10-29T14:31:35.156Z,7.80
2023-10-29T14:34:02.473Z,5.55
2023-10-29T14:36:29.883Z,6.82
2023-10-29T14:38:57.404Z,9.00
2023-10-29T14:41:26.404Z,7.60
2023-10-29T14:43:53.826Z,6.78
2023-10-29T14:46:21.219Z,6.32
2023-10-29T14:48:48.579Z,7.63
2023-10-29T14:51:18.836Z,7.30
2023-10-29T14:53:46.394Z,8.80
2023-10-29T14:56:16.782Z,8.27
2023-10-29T14:58:45.000Z,6.18
2023-10-29T15:01:12.783Z,5.80
2023-10-29T15:03:40.494Z,6.68
2023-10-29T15:06:12.227Z,7.13
2023-10-29T15:08:39.691Z,6.50
2023-10-29T15:11:09.489Z,5.32
2023-10-29T15:13:46.779Z,6.75
2023-10-29T15:16:16.584Z,6.03
2023-10-29T15:18:44.283Z,8.70
2023-10-29T15:21:16.532Z,7.32
2023-10-29T15:23:44.244Z,5.90
2023-10-29T15:26:16.298Z,6.07
2023-10-29T15:28:43.977Z,6.95
2023-10-29T15:31:12.442Z,5.57
2023-10-29T15:33:40.583Z,7.43
2023-10-29T15:36:10.101Z,6.22
2023-10-29T15:38:38.457Z,5.47
2023-10-29T15:41:06.816Z,6.72
2023-10-29T15:43:37.446Z,6.68
2023-10-29T15:46:10.294Z,5.28
2023-10-29T15:48:39.057Z,5.63
2023-10-29T15:51:09.811Z,5.75
2023-10-29T15:53:38.315Z,4.40
2023-10-29T15:56:12.925Z,5.25
2023-10-29T15:58:40.322Z,4.32
2023-10-29T16:01:17.440Z,5.93
2023-10-29T16:03:46.767Z,6.28
2023-10-29T16:06:14.426Z,3.85
2023-10-29T16:08:41.951Z,3.90
2023-10-29T16:11:10.573Z,4.43
2023-10-29T16:13:38.159Z,5.38
2023-10-29T16:16:06.315Z,4.05
2023-10-29T16:18:34.102Z,5.55
2023-10-29T16:21:01.539Z,5.88
2023-10-29T16:23:28.955Z,5.88
2023-10-29T16:25:56.634Z,5.88
2023-10-29T16:28:24.166Z,5.78
2023-10-29T16:30:51.541Z,6.63
2023-10-29T16:33:19.198Z,5.43
2023-10-29T16:35:46.638Z,4.00
2023-10-29T16:38:14.103Z,4.75
2023-10-29T16:40:43.950Z,6.05
2023-10-29T16:43:11.573Z,6.05
2023-10-29T16:45:40.000Z,5.80
2023-10-29T16:48:09.142Z,6.10
2023-10-29T16:50:59.868Z,6.32
2023-10-29T16:53:30.791Z,4.80
2023-10-29T16:56:08.279Z,6.97
2023-10-29T16:58:36.903Z,4.68
2023-10-29T17:01:04.859Z,4.57
2023-10-29T17:03:32.700Z,6.13
2023-10-29T17:06:00.283Z,4.45
2023-10-29T17:08:27.761Z,4.45
2023-10-29T17:11:01.758Z,7.18
2023-10-29T17:13:29.542Z,4.10
2023-10-29T17:16:01.179Z,6.45
2023-10-29T17:18:29.261Z,6.80
2023-10-29T17:20:58.532Z,5.20
2023-10-29T17:23:27.134Z,4.65
2023-10-29T17:25:54.789Z,6.60
2023-10-29T17:28:23.173Z,7.00
2023-10-29T17:30:50.563Z,5.25
2023-10-29T17:33:18.198Z,4.45
2023-10-29T17:35:46.595Z,5.60
2023-10-29T17:38:13.947Z,4.75
2023-10-29T17:40:41.477Z,4.30
2023-10-29T17:43:10.313Z,5.00
2023-10-29T17:45:40.517Z,3.53
2023-10-29T17:48:08.190Z,3.65
2023-10-29T17:50:35.828Z,4.95
2023-10-29T17:53:04.014Z,4.38
2023-10-29T17:55:31.653Z,4.85
2023-10-29T17:58:02.108Z,5.15
2023-10-29T18:00:29.787Z,4.80
2023-10-29T18:02:58.355Z,4.28
2023-10-29T18:05:26.151Z,4.55
2023-10-29T18:07:53.477Z,4.18
2023-10-29T18:10:20.900Z,4.03
2023-10-29T18:12:48.340Z,3.97
2023-10-29T18:15:18.217Z,6.80
2023-10-29T18:17:46.036Z,4.93
2023-10-29T18:20:13.774Z,4.20
2023-10-29T18:22:41.294Z,2.83
2023-10-29T18:25:09.224Z,4.00
2023-10-29T18:27:37.402Z,4.15
2023-10-29T18:30:07.571Z,5.10
2023-10-29T18:32:36.913Z,3.95
2023-10-29T18:35:05.688Z,6.13
2023-10-29T18:37:33.307Z,4.75
2023-10-29T18:40:00.869Z,6.75
2023-10-29T18:42:28.955Z,7.88
2023-10-29T18:44:56.260Z,6.47
2023-10-29T18:47:25.156Z,7.55
2023-10-29T18:49:54.380Z,6.05
2023-10-29T18:52:21.939Z,6.97
2023-10-29T18:54:49.972Z,4.88
2023-10-29T18:57:19.236Z,6.38
2023-10-29T18:59:46.934Z,5.57
2023-10-29T19:02:14.415Z,4.13
2023-10-29T19:04:42.329Z,5.57
2023-10-29T19:07:11.702Z,4.32
2023-10-29T19:09:39.096Z,4.20
2023-10-29T19:12:07.423Z,4.45
2023-10-29T19:14:37.460Z,4.57
2023-10-29T19:17:10.078Z,4.88
2023-10-29T19:19:41.960Z,5.47
2023-10-29T19:22:10.768Z,6.45
2023-10-29T19:24:39.870Z,5.63
2023-10-29T19:27:08.242Z,6.55
2023-10-29T19:29:36.450Z,5.82
2023-10-29T19:32:04.133Z,6.05
2023-10-29T19:34:31.547Z,6.78
2023-10-29T19:37:00.460Z,6.78
2023-10-29T19:39:28.139Z,6.00
2023-10-29T19:41:55.701Z,6.72
2023-10-29T19:44:24.646Z,7.85
2023-10-29T19:46:52.164Z,6.47
2023-10-29T19:49:19.706Z,5.65
2023-10-29T19:51:47.088Z,6.65
2023-10-29T19:58:32.690Z,5.43
2023-10-29T20:01:09.048Z,6.45
2023-10-29T20:03:37.161Z,6.28
2023-10-29T20:06:12.355Z,4.43
2023-10-29T20:08:47.291Z,5.70
2023-10-29T20:11:15.700Z,6.07
2023-10-29T20:13:54.044Z,4.38
2023-10-29T20:16:22.205Z,5.18
2023-10-29T20:18:55.195Z,5.95
2023-10-29T20:21:23.268Z,5.10
2023-10-29T20:23:53.675Z,5.75
2023-10-29T20:26:21.523Z,6.15
2023-10-29T20:28:55.528Z,5.93
2023-10-29T20:31:26.219Z,6.38
2023-10-29T20:33:53.856Z,4.97
2023-10-29T20:36:21.462Z,6.55
2023-10-29T20:38:49.330Z,5.30
2023-10-29T20:41:17.055Z,6.18
2023-10-29T20:43:45.022Z,6.85
2023-10-29T20:46:25.264Z,8.05
2023-10-29T20:48:52.809Z,11.30
2023-10-29T20:51:20.157Z,6.38
2023-10-29T20:53:50.202Z,8.23
2023-10-29T20:56:18.691Z,6.22
2023-10-29T20:58:46.099Z,7.38
2023-10-29T21:01:13.519Z,6.65
2023-10-29T21:03:40.984Z,5.72
2023-10-29T21:06:08.583Z,6.55
2023-10-29T21:08:36.150Z,9.23
2023-10-29T21:11:14.733Z,6.63
2023-10-29T21:13:47.237Z,5.50
2023-10-29T21:16:16.694Z,10.38
2023-10-29T21:18:54.113Z,7.97
2023-10-29T21:21:21.553Z,7.35
2023-10-29T21:23:49.038Z,7.65
2023-10-29T21:26:16.591Z,6.80
2023-10-29T21:28:44.518Z,7.90
2023-10-29T21:31:13.177Z,6.97
2023-10-29T21:33:42.427Z,7.75
2023-10-29T21:36:13.301Z,7.90
2023-10-29T21:38:40.577Z,10.48
2023-10-29T21:41:13.495Z,7.85
2023-10-29T21:43:42.155Z,8.18
2023-10-29T21:46:12.754Z,10.05
2023-10-29T21:48:40.270Z,10.13
2023-10-29T21:51:08.030Z,8.65
2023-10-29T21:53:37.305Z,8.50
2023-10-29T21:56:06.980Z,7.20
2023-10-29T21:58:38.179Z,8.55
2023-10-29T22:01:05.649Z,10.25
2023-10-29T22:03:34.889Z,8.98
2023-10-29T22:06:07.897Z,7.75
2023-10-29T22:08:39.761Z,8.23
2023-10-29T22:11:08.862Z,8.85
2023-10-29T22:13:43.613Z,7.30
2023-10-29T22:16:12.581Z,8.07
2023-10-29T22:18:40.568Z,7.95
2023-10-29T22:21:13.690Z,8.32
2023-10-29T22:26:09.744Z,8.95
2023-10-29T22:28:38.257Z,8.55
2023-10-29T22:31:06.290Z,10.45
2023-10-29T22:33:35.051Z,8.63
2023-10-29T22:36:05.561Z,8.23
2023-10-29T22:38:33.600Z,7.70
2023-10-29T22:41:01.921Z,8.80
2023-10-29T22:43:30.333Z,6.97
2023-10-29T22:45:58.179Z,9.50
2023-10-29T22:48:25.716Z,6.70
2023-10-29T22:50:53.852Z,9.10
2023-10-29T22:53:22.389Z,9.77
2023-10-29T22:55:49.913Z,8.65
2023-10-29T22:58:17.346Z,8.75
2023-10-29T23:00:44.942Z,9.05
2023-10-29T23:03:12.284Z,8.45
2023-10-29T23:05:39.788Z,8.63
2023-10-29T23:08:07.200Z,7.60
2023-10-29T23:10:35.714Z,8.20
2023-10-29T23:13:05.433Z,8.77
2023-10-29T23:15:33.163Z,9.30
2023-10-29T23:18:02.307Z,11.98
2023-10-29T23:20:29.951Z,8.20
2023-10-29T23:22:57.328Z,8.60
2023-10-29T23:25:24.775Z,8.07
2023-10-29T23:27:52.082Z,9.13
2023-10-29T23:30:19.509Z,10.30
2023-10-29T23:32:46.836Z,8.93
2023-10-29T23:35:14.288Z,9.85
2023-10-29T23:37:41.853Z,9.52
2023-10-29T23:40:10.059Z,8.13
2023-10-29T23:42:37.497Z,9.90
2023-10-29T23:45:05.509Z,8.20
2023-10-29T23:47:33.654Z,8.93
2023-10-29T23:50:00.988Z,8.25
2023-10-29T23:52:30.654Z,9.65
2023-10-29T23:54:58.026Z,8.27
2023-10-29T23:57:27.886Z,9.48
2023-10-29T23:59:55.183Z,9.60
